sensor_id;sensor_type;location;lat;lon;timestamp;pressure;altitude;pressure_sealevel;temperature;humidity
80405;BME280;69733;48.744;9.176;2023-07-16T00:00:29;96603.75;;;20.10;80.50
80405;BME280;69733;48.744;9.176;2023-07-16T00:02:54;96616.53;;;20.05;80.75
80405;BME280;69733;48.744;9.176;2023-07-16T00:05:19;96618.44;;;20.04;81.03
80405;BME280;69733;48.744;9.176;2023-07-16T00:07:45;96616.09;;;19.98;81.18
80405;BME280;69733;48.744;9.176;2023-07-16T00:10:10;96599.16;;;19.92;81.08
80405;BME280;69733;48.744;9.176;2023-07-16T00:12:35;96598.44;;;19.86;81.27
80405;BME280;69733;48.744;9.176;2023-07-16T00:15:01;96616.59;;;19.81;81.53
80405;BME280;69733;48.744;9.176;2023-07-16T00:17:26;96611.72;;;19.83;81.41
80405;BME280;69733;48.744;9.176;2023-07-16T00:19:51;96607.78;;;19.75;81.73
80405;BME280;69733;48.744;9.176;2023-07-16T00:22:17;96584.78;;;19.78;81.71
80405;BME280;69733;48.744;9.176;2023-07-16T00:24:42;96597.69;;;19.81;81.67
80405;BME280;69733;48.744;9.176;2023-07-16T00:27:07;96601.28;;;19.76;81.63
80405;BME280;69733;48.744;9.176;2023-07-16T00:29:32;96595.56;;;19.78;81.41
80405;BME280;69733;48.744;9.176;2023-07-16T00:31:58;96612.81;;;19.82;81.63
80405;BME280;69733;48.744;9.176;2023-07-16T00:34:23;96622.81;;;19.81;81.77
80405;BME280;69733;48.744;9.176;2023-07-16T00:36:48;96624.41;;;19.82;81.81
80405;BME280;69733;48.744;9.176;2023-07-16T00:39:14;96623.59;;;19.82;81.69
80405;BME280;69733;48.744;9.176;2023-07-16T00:41:39;96621.41;;;19.84;82.00
80405;BME280;69733;48.744;9.176;2023-07-16T00:44:05;96625.50;;;19.81;81.97
80405;BME280;69733;48.744;9.176;2023-07-16T00:46:32;96634.41;;;19.82;82.14
80405;BME280;69733;48.744;9.176;2023-07-16T00:48:58;96624.69;;;19.81;82.26
80405;BME280;69733;48.744;9.176;2023-07-16T00:51:24;96615.00;;;19.80;82.37
80405;BME280;69733;48.744;9.176;2023-07-16T00:53:51;96620.91;;;19.82;82.14
80405;BME280;69733;48.744;9.176;2023-07-16T00:56:17;96628.72;;;19.83;82.39
80405;BME280;69733;48.744;9.176;2023-07-16T00:58:43;96619.81;;;19.83;82.49
80405;BME280;69733;48.744;9.176;2023-07-16T01:01:08;96625.00;;;19.79;82.51
80405;BME280;69733;48.744;9.176;2023-07-16T01:03:33;96636.94;;;19.73;82.83
80405;BME280;69733;48.744;9.176;2023-07-16T01:06:41;96632.66;;;19.72;83.04
80405;BME280;69733;48.744;9.176;2023-07-16T01:08:55;96652.13;;;19.69;82.92
80405;BME280;69733;48.744;9.176;2023-07-16T01:11:23;96650.75;;;19.72;83.03
80405;BME280;69733;48.744;9.176;2023-07-16T01:13:49;96654.75;;;19.74;83.08
80405;BME280;69733;48.744;9.176;2023-07-16T01:16:19;96660.97;;;19.75;83.04
80405;BME280;69733;48.744;9.176;2023-07-16T01:18:45;96659.34;;;19.74;83.21
80405;BME280;69733;48.744;9.176;2023-07-16T01:21:10;96670.72;;;19.71;83.31
80405;BME280;69733;48.744;9.176;2023-07-16T01:24:05;96661.81;;;19.70;83.42
80405;BME280;69733;48.744;9.176;2023-07-16T01:27:08;96673.50;;;19.66;83.74
80405;BME280;69733;48.744;9.176;2023-07-16T01:29:51;96665.47;;;19.61;83.93
80405;BME280;69733;48.744;9.176;2023-07-16T01:32:20;96673.63;;;19.56;84.07
80405;BME280;69733;48.744;9.176;2023-07-16T01:34:46;96669.59;;;19.53;84.04
80405;BME280;69733;48.744;9.176;2023-07-16T01:37:12;96679.09;;;19.51;84.12
80405;BME280;69733;48.744;9.176;2023-07-16T01:39:37;96676.16;;;19.47;84.28
80405;BME280;69733;48.744;9.176;2023-07-16T01:42:03;96685.13;;;19.43;84.55
80405;BME280;69733;48.744;9.176;2023-07-16T01:44:28;96671.13;;;19.35;84.66
80405;BME280;69733;48.744;9.176;2023-07-16T01:49:38;96670.19;;;19.21;84.85
80405;BME280;69733;48.744;9.176;2023-07-16T01:52:05;96667.28;;;19.18;85.45
80405;BME280;69733;48.744;9.176;2023-07-16T01:54:31;96649.25;;;19.13;85.28
80405;BME280;69733;48.744;9.176;2023-07-16T01:56:56;96660.34;;;19.12;85.16
80405;BME280;69733;48.744;9.176;2023-07-16T01:59:22;96666.31;;;19.09;85.27
80405;BME280;69733;48.744;9.176;2023-07-16T02:01:47;96667.38;;;19.08;85.36
80405;BME280;69733;48.744;9.176;2023-07-16T02:04:12;96672.78;;;19.08;85.39
80405;BME280;69733;48.744;9.176;2023-07-16T02:06:37;96674.16;;;19.05;85.44
80405;BME280;69733;48.744;9.176;2023-07-16T02:09:03;96671.72;;;19.04;85.23
80405;BME280;69733;48.744;9.176;2023-07-16T02:11:28;96669.59;;;19.01;85.43
80405;BME280;69733;48.744;9.176;2023-07-16T02:13:54;96666.41;;;18.99;85.56
80405;BME280;69733;48.744;9.176;2023-07-16T02:16:19;96668.56;;;18.97;85.64
80405;BME280;69733;48.744;9.176;2023-07-16T02:18:44;96677.50;;;18.92;85.45
80405;BME280;69733;48.744;9.176;2023-07-16T02:21:10;96673.22;;;18.91;85.83
80405;BME280;69733;48.744;9.176;2023-07-16T02:23:35;96688.88;;;18.89;85.74
80405;BME280;69733;48.744;9.176;2023-07-16T02:26:01;96698.59;;;18.85;85.52
80405;BME280;69733;48.744;9.176;2023-07-16T02:28:26;96702.44;;;18.79;86.01
80405;BME280;69733;48.744;9.176;2023-07-16T02:30:51;96700.31;;;18.76;86.09
80405;BME280;69733;48.744;9.176;2023-07-16T02:33:17;96687.41;;;18.73;86.16
80405;BME280;69733;48.744;9.176;2023-07-16T02:35:49;96691.47;;;18.70;86.01
80405;BME280;69733;48.744;9.176;2023-07-16T02:38:15;96695.00;;;18.66;86.18
80405;BME280;69733;48.744;9.176;2023-07-16T02:40:44;96697.72;;;18.61;86.21
80405;BME280;69733;48.744;9.176;2023-07-16T02:43:10;96705.00;;;18.60;86.18
80405;BME280;69733;48.744;9.176;2023-07-16T02:45:35;96698.88;;;18.55;86.70
80405;BME280;69733;48.744;9.176;2023-07-16T02:48:02;96712.31;;;18.50;86.43
80405;BME280;69733;48.744;9.176;2023-07-16T02:50:27;96708.63;;;18.46;86.69
80405;BME280;69733;48.744;9.176;2023-07-16T02:52:52;96714.03;;;18.40;86.73
80405;BME280;69733;48.744;9.176;2023-07-16T02:55:18;96706.81;;;18.31;86.69
80405;BME280;69733;48.744;9.176;2023-07-16T02:57:43;96703.34;;;18.25;86.93
80405;BME280;69733;48.744;9.176;2023-07-16T03:00:08;96705.28;;;18.20;87.18
80405;BME280;69733;48.744;9.176;2023-07-16T03:02:34;96727.13;;;18.13;87.07
80405;BME280;69733;48.744;9.176;2023-07-16T03:04:59;96728.47;;;18.11;87.09
80405;BME280;69733;48.744;9.176;2023-07-16T03:07:25;96726.63;;;18.06;86.97
80405;BME280;69733;48.744;9.176;2023-07-16T03:09:50;96723.41;;;18.04;87.17
80405;BME280;69733;48.744;9.176;2023-07-16T03:12:15;96705.09;;;18.01;86.86
80405;BME280;69733;48.744;9.176;2023-07-16T03:14:41;96704.59;;;17.99;86.89
80405;BME280;69733;48.744;9.176;2023-07-16T03:17:06;96724.53;;;17.93;87.16
80405;BME280;69733;48.744;9.176;2023-07-16T03:19:32;96741.78;;;17.92;86.87
80405;BME280;69733;48.744;9.176;2023-07-16T03:21:57;96755.25;;;17.92;86.81
80405;BME280;69733;48.744;9.176;2023-07-16T03:24:23;96756.31;;;17.91;86.77
80405;BME280;69733;48.744;9.176;2023-07-16T03:26:48;96761.97;;;17.89;86.70
80405;BME280;69733;48.744;9.176;2023-07-16T03:29:13;96760.88;;;17.90;86.49
80405;BME280;69733;48.744;9.176;2023-07-16T03:31:39;96759.00;;;17.91;86.70
80405;BME280;69733;48.744;9.176;2023-07-16T03:34:04;96756.56;;;17.89;86.63
80405;BME280;69733;48.744;9.176;2023-07-16T03:36:29;96767.09;;;17.86;86.84
80405;BME280;69733;48.744;9.176;2023-07-16T03:38:55;96773.56;;;17.85;86.65
80405;BME280;69733;48.744;9.176;2023-07-16T03:41:20;96775.72;;;17.83;86.50
80405;BME280;69733;48.744;9.176;2023-07-16T03:43:45;96786.50;;;17.83;86.73
80405;BME280;69733;48.744;9.176;2023-07-16T03:46:10;96764.44;;;17.81;86.65
80405;BME280;69733;48.744;9.176;2023-07-16T03:48:36;96792.97;;;17.77;86.94
80405;BME280;69733;48.744;9.176;2023-07-16T03:51:01;96795.38;;;17.78;86.82
80405;BME280;69733;48.744;9.176;2023-07-16T03:53:26;96812.06;;;17.80;86.49
80405;BME280;69733;48.744;9.176;2023-07-16T03:55:52;96819.09;;;17.81;86.55
80405;BME280;69733;48.744;9.176;2023-07-16T03:58:17;96811.78;;;17.82;86.52
80405;BME280;69733;48.744;9.176;2023-07-16T04:00:42;96816.38;;;17.81;86.23
80405;BME280;69733;48.744;9.176;2023-07-16T04:03:09;96831.44;;;17.82;86.53
80405;BME280;69733;48.744;9.176;2023-07-16T04:05:34;96823.91;;;17.84;86.12
80405;BME280;69733;48.744;9.176;2023-07-16T04:07:59;96822.81;;;17.85;86.53
80405;BME280;69733;48.744;9.176;2023-07-16T04:10:25;96808.28;;;17.86;86.65
80405;BME280;69733;48.744;9.176;2023-07-16T04:12:50;96800.50;;;17.85;86.45
80405;BME280;69733;48.744;9.176;2023-07-16T04:15:15;96801.28;;;17.85;86.11
80405;BME280;69733;48.744;9.176;2023-07-16T04:17:41;96805.59;;;17.86;86.38
80405;BME280;69733;48.744;9.176;2023-07-16T04:20:06;96794.56;;;17.88;86.62
80405;BME280;69733;48.744;9.176;2023-07-16T04:22:33;96800.50;;;17.85;86.04
80405;BME280;69733;48.744;9.176;2023-07-16T04:24:59;96798.88;;;17.84;86.82
80405;BME280;69733;48.744;9.176;2023-07-16T04:27:25;96803.72;;;17.82;86.77
80405;BME280;69733;48.744;9.176;2023-07-16T04:29:50;96812.34;;;17.79;86.57
80405;BME280;69733;48.744;9.176;2023-07-16T04:32:15;96817.19;;;17.77;86.46
80405;BME280;69733;48.744;9.176;2023-07-16T04:34:41;96834.69;;;17.79;86.69
80405;BME280;69733;48.744;9.176;2023-07-16T04:37:06;96841.94;;;17.79;86.67
80405;BME280;69733;48.744;9.176;2023-07-16T04:39:31;96842.75;;;17.79;86.56
80405;BME280;69733;48.744;9.176;2023-07-16T04:41:57;96858.66;;;17.81;86.72
80405;BME280;69733;48.744;9.176;2023-07-16T04:44:22;96858.66;;;17.76;86.67
80405;BME280;69733;48.744;9.176;2023-07-16T04:46:47;96855.94;;;17.76;86.82
80405;BME280;69733;48.744;9.176;2023-07-16T04:49:12;96859.47;;;17.76;86.81
80405;BME280;69733;48.744;9.176;2023-07-16T04:51:38;96849.50;;;17.77;86.89
80405;BME280;69733;48.744;9.176;2023-07-16T04:54:03;96853.00;;;17.77;86.86
80405;BME280;69733;48.744;9.176;2023-07-16T04:56:28;96851.38;;;17.81;86.68
80405;BME280;69733;48.744;9.176;2023-07-16T04:58:54;96844.09;;;17.82;86.55
80405;BME280;69733;48.744;9.176;2023-07-16T05:01:19;96842.47;;;17.86;86.44
80405;BME280;69733;48.744;9.176;2023-07-16T05:03:45;96851.63;;;17.90;86.23
80405;BME280;69733;48.744;9.176;2023-07-16T05:06:11;96865.88;;;17.96;85.81
80405;BME280;69733;48.744;9.176;2023-07-16T05:08:36;96869.91;;;17.98;86.17
80405;BME280;69733;48.744;9.176;2023-07-16T05:11:02;96870.72;;;17.99;86.10
80405;BME280;69733;48.744;9.176;2023-07-16T05:13:27;96872.88;;;18.02;86.24
80405;BME280;69733;48.744;9.176;2023-07-16T05:15:53;96870.69;;;18.04;86.09
80405;BME280;69733;48.744;9.176;2023-07-16T05:18:18;96860.47;;;18.06;86.09
80405;BME280;69733;48.744;9.176;2023-07-16T05:20:47;96866.13;;;18.09;86.29
80405;BME280;69733;48.744;9.176;2023-07-16T05:23:13;96873.63;;;18.12;86.30
80405;BME280;69733;48.744;9.176;2023-07-16T05:25:38;96874.72;;;18.11;86.23
80405;BME280;69733;48.744;9.176;2023-07-16T05:28:03;96863.13;;;18.11;86.20
80405;BME280;69733;48.744;9.176;2023-07-16T05:30:29;96866.63;;;18.11;86.42
80405;BME280;69733;48.744;9.176;2023-07-16T05:32:54;96860.44;;;18.11;86.29
80405;BME280;69733;48.744;9.176;2023-07-16T05:35:20;96881.72;;;18.12;86.35
80405;BME280;69733;48.744;9.176;2023-07-16T05:37:45;96884.16;;;18.14;86.35
80405;BME280;69733;48.744;9.176;2023-07-16T05:40:11;96884.41;;;18.17;86.10
80405;BME280;69733;48.744;9.176;2023-07-16T05:42:36;96887.63;;;18.24;85.76
80405;BME280;69733;48.744;9.176;2023-07-16T05:45:02;96873.56;;;18.37;85.57
80405;BME280;69733;48.744;9.176;2023-07-16T05:47:27;96888.59;;;18.54;85.01
80405;BME280;69733;48.744;9.176;2023-07-16T05:49:52;96906.59;;;18.68;84.83
80405;BME280;69733;48.744;9.176;2023-07-16T05:52:18;96904.41;;;18.75;84.74
80405;BME280;69733;48.744;9.176;2023-07-16T05:54:43;96909.22;;;18.78;84.89
80405;BME280;69733;48.744;9.176;2023-07-16T05:57:10;96893.03;;;18.83;84.63
80405;BME280;69733;48.744;9.176;2023-07-16T05:59:35;96886.53;;;18.89;84.86
80405;BME280;69733;48.744;9.176;2023-07-16T06:02:02;96895.59;;;19.04;84.63
80405;BME280;69733;48.744;9.176;2023-07-16T06:04:28;96883.63;;;19.20;84.13
80405;BME280;69733;48.744;9.176;2023-07-16T06:06:54;96891.13;;;19.28;84.10
80405;BME280;69733;48.744;9.176;2023-07-16T06:09:19;96886.81;;;19.27;84.50
80405;BME280;69733;48.744;9.176;2023-07-16T06:11:47;96880.38;;;19.23;84.68
80405;BME280;69733;48.744;9.176;2023-07-16T06:14:13;96894.19;;;19.16;85.06
80405;BME280;69733;48.744;9.176;2023-07-16T06:16:38;96910.16;;;19.08;85.53
80405;BME280;69733;48.744;9.176;2023-07-16T06:19:03;96920.19;;;18.97;86.02
80405;BME280;69733;48.744;9.176;2023-07-16T06:21:29;96916.72;;;18.92;86.24
80405;BME280;69733;48.744;9.176;2023-07-16T06:23:54;96909.72;;;18.85;86.52
80405;BME280;69733;48.744;9.176;2023-07-16T06:26:19;96902.75;;;18.79;86.50
80405;BME280;69733;48.744;9.176;2023-07-16T06:28:44;96895.75;;;18.78;86.88
80405;BME280;69733;48.744;9.176;2023-07-16T06:31:14;96903.59;;;18.75;87.01
80405;BME280;69733;48.744;9.176;2023-07-16T06:33:39;96898.75;;;18.77;86.97
80405;BME280;69733;48.744;9.176;2023-07-16T06:36:04;96886.34;;;18.76;86.67
80405;BME280;69733;48.744;9.176;2023-07-16T06:38:30;96894.09;;;18.82;86.63
80405;BME280;69733;48.744;9.176;2023-07-16T06:40:55;96902.94;;;18.93;85.85
80405;BME280;69733;48.744;9.176;2023-07-16T06:43:20;96897.47;;;19.08;85.72
80405;BME280;69733;48.744;9.176;2023-07-16T06:45:46;96892.81;;;19.19;85.76
80405;BME280;69733;48.744;9.176;2023-07-16T06:48:13;96887.56;;;19.32;85.11
80405;BME280;69733;48.744;9.176;2023-07-16T06:50:38;96897.19;;;19.49;84.79
80405;BME280;69733;48.744;9.176;2023-07-16T06:53:04;96885.69;;;19.67;84.15
80405;BME280;69733;48.744;9.176;2023-07-16T06:55:29;96895.78;;;19.85;83.77
80405;BME280;69733;48.744;9.176;2023-07-16T06:57:54;96895.31;;;20.07;83.13
80405;BME280;69733;48.744;9.176;2023-07-16T07:00:20;96899.03;;;20.40;82.71
80405;BME280;69733;48.744;9.176;2023-07-16T07:02:45;96908.97;;;21.10;80.74
80405;BME280;69733;48.744;9.176;2023-07-16T07:05:10;96905.13;;;22.13;78.26
80405;BME280;69733;48.744;9.176;2023-07-16T07:07:36;96898.47;;;23.01;76.75
80405;BME280;69733;48.744;9.176;2023-07-16T07:10:01;96906.13;;;24.02;75.26
80405;BME280;69733;48.744;9.176;2023-07-16T07:12:26;96893.53;;;24.85;74.25
80405;BME280;69733;48.744;9.176;2023-07-16T07:14:52;96896.16;;;25.50;73.74
80405;BME280;69733;48.744;9.176;2023-07-16T07:17:17;96892.38;;;26.06;73.47
80405;BME280;69733;48.744;9.176;2023-07-16T07:19:43;96892.69;;;26.59;73.24
80405;BME280;69733;48.744;9.176;2023-07-16T07:22:08;96890.88;;;27.01;73.44
80405;BME280;69733;48.744;9.176;2023-07-16T07:24:34;96877.19;;;27.43;73.08
80405;BME280;69733;48.744;9.176;2023-07-16T07:26:59;96884.03;;;27.90;72.57
80405;BME280;69733;48.744;9.176;2023-07-16T07:29:24;96884.16;;;28.39;72.12
80405;BME280;69733;48.744;9.176;2023-07-16T07:31:50;96887.50;;;28.69;71.81
80405;BME280;69733;48.744;9.176;2023-07-16T07:34:15;96892.63;;;28.82;72.29
80405;BME280;69733;48.744;9.176;2023-07-16T07:36:41;96900.59;;;28.99;71.99
80405;BME280;69733;48.744;9.176;2023-07-16T07:39:06;96913.47;;;29.35;71.24
80405;BME280;69733;48.744;9.176;2023-07-16T07:41:31;96913.38;;;29.07;72.41
80405;BME280;69733;48.744;9.176;2023-07-16T07:43:57;96899.69;;;29.07;71.32
80405;BME280;69733;48.744;9.176;2023-07-16T07:46:22;96907.88;;;29.44;70.47
80405;BME280;69733;48.744;9.176;2023-07-16T07:48:47;96910.41;;;29.37;70.75
80405;BME280;69733;48.744;9.176;2023-07-16T07:51:12;96904.72;;;28.93;71.45
80405;BME280;69733;48.744;9.176;2023-07-16T07:53:38;96915.09;;;28.88;70.81
80405;BME280;69733;48.744;9.176;2023-07-16T07:56:03;96911.13;;;28.97;69.82
80405;BME280;69733;48.744;9.176;2023-07-16T07:58:29;96910.94;;;29.42;67.50
80405;BME280;69733;48.744;9.176;2023-07-16T08:00:54;96907.72;;;29.80;65.56
80405;BME280;69733;48.744;9.176;2023-07-16T08:03:19;96918.53;;;30.17;64.05
80405;BME280;69733;48.744;9.176;2023-07-16T08:05:48;96918.78;;;30.71;61.41
80405;BME280;69733;48.744;9.176;2023-07-16T08:08:14;96928.16;;;31.17;60.00
80405;BME280;69733;48.744;9.176;2023-07-16T08:10:39;96928.16;;;31.17;58.87
80405;BME280;69733;48.744;9.176;2023-07-16T08:13:06;96923.81;;;31.00;57.08
80405;BME280;69733;48.744;9.176;2023-07-16T08:15:31;96920.72;;;31.52;53.52
80405;BME280;69733;48.744;9.176;2023-07-16T08:17:56;96919.41;;;31.84;52.60
80405;BME280;69733;48.744;9.176;2023-07-16T08:20:24;96917.19;;;32.09;50.59
80405;BME280;69733;48.744;9.176;2023-07-16T08:22:49;96923.66;;;32.62;48.86
80405;BME280;69733;48.744;9.176;2023-07-16T08:25:15;96921.03;;;32.69;47.13
80405;BME280;69733;48.744;9.176;2023-07-16T08:27:40;96910.19;;;31.96;46.90
80405;BME280;69733;48.744;9.176;2023-07-16T08:30:06;96904.19;;;31.17;46.87
80405;BME280;69733;48.744;9.176;2023-07-16T08:32:31;96898.22;;;30.65;46.15
80405;BME280;69733;48.744;9.176;2023-07-16T08:34:57;96886.56;;;30.40;45.46
80405;BME280;69733;48.744;9.176;2023-07-16T08:37:22;96890.72;;;30.02;44.51
80405;BME280;69733;48.744;9.176;2023-07-16T08:39:51;96890.22;;;29.57;44.05
80405;BME280;69733;48.744;9.176;2023-07-16T08:42:17;96911.47;;;29.60;43.44
80405;BME280;69733;48.744;9.176;2023-07-16T08:44:44;96900.13;;;30.33;41.70
80405;BME280;69733;48.744;9.176;2023-07-16T08:47:09;96907.94;;;31.09;39.90
80405;BME280;69733;48.744;9.176;2023-07-16T08:49:35;96912.78;;;31.31;39.46
80405;BME280;69733;48.744;9.176;2023-07-16T08:52:02;96907.50;;;31.07;39.42
80405;BME280;69733;48.744;9.176;2023-07-16T08:54:27;96915.50;;;30.81;39.58
80405;BME280;69733;48.744;9.176;2023-07-16T08:56:53;96915.78;;;30.60;39.21
80405;BME280;69733;48.744;9.176;2023-07-16T08:59:18;96913.19;;;30.83;39.37
80405;BME280;69733;48.744;9.176;2023-07-16T09:01:47;96914.09;;;30.71;38.71
80405;BME280;69733;48.744;9.176;2023-07-16T09:04:13;96916.28;;;30.97;38.23
80405;BME280;69733;48.744;9.176;2023-07-16T09:06:38;96926.28;;;31.55;37.67
80405;BME280;69733;48.744;9.176;2023-07-16T09:09:03;96928.38;;;32.20;36.21
80405;BME280;69733;48.744;9.176;2023-07-16T09:11:29;96918.63;;;32.68;35.89
80405;BME280;69733;48.744;9.176;2023-07-16T09:13:54;96921.88;;;32.99;35.32
80405;BME280;69733;48.744;9.176;2023-07-16T09:16:20;96914.91;;;33.32;34.68
80405;BME280;69733;48.744;9.176;2023-07-16T09:18:46;96921.16;;;33.59;34.49
80405;BME280;69733;48.744;9.176;2023-07-16T09:21:12;96920.88;;;33.64;33.98
80405;BME280;69733;48.744;9.176;2023-07-16T09:23:38;96912.91;;;33.88;33.26
80405;BME280;69733;48.744;9.176;2023-07-16T09:26:04;96917.88;;;34.09;33.02
80405;BME280;69733;48.744;9.176;2023-07-16T09:28:33;96915.63;;;34.59;32.67
80405;BME280;69733;48.744;9.176;2023-07-16T09:31:05;96919.16;;;34.15;32.35
80405;BME280;69733;48.744;9.176;2023-07-16T09:33:32;96922.53;;;33.68;32.55
80405;BME280;69733;48.744;9.176;2023-07-16T09:35:57;96915.81;;;34.03;32.32
80405;BME280;69733;48.744;9.176;2023-07-16T09:38:23;96911.03;;;33.96;31.84
80405;BME280;69733;48.744;9.176;2023-07-16T09:40:51;96909.69;;;33.53;32.33
80405;BME280;69733;48.744;9.176;2023-07-16T09:43:16;96910.50;;;33.01;32.22
80405;BME280;69733;48.744;9.176;2023-07-16T09:45:42;96916.41;;;32.54;32.84
80405;BME280;69733;48.744;9.176;2023-07-16T09:48:07;96915.94;;;32.06;32.52
80405;BME280;69733;48.744;9.176;2023-07-16T09:50:35;96914.56;;;31.78;32.99
80405;BME280;69733;48.744;9.176;2023-07-16T09:53:01;96912.53;;;31.55;33.00
80405;BME280;69733;48.744;9.176;2023-07-16T09:55:30;96899.13;;;31.19;32.81
80405;BME280;69733;48.744;9.176;2023-07-16T09:57:59;96911.34;;;31.02;33.07
80405;BME280;69733;48.744;9.176;2023-07-16T10:00:26;96907.94;;;30.93;32.75
80405;BME280;69733;48.744;9.176;2023-07-16T10:02:52;96901.03;;;30.84;32.91
80405;BME280;69733;48.744;9.176;2023-07-16T10:05:25;96910.63;;;30.74;33.13
80405;BME280;69733;48.744;9.176;2023-07-16T10:07:53;96904.41;;;30.61;33.19
80405;BME280;69733;48.744;9.176;2023-07-16T10:10:19;96912.91;;;30.41;33.09
80405;BME280;69733;48.744;9.176;2023-07-16T10:13:00;96914.09;;;30.55;33.22
80405;BME280;69733;48.744;9.176;2023-07-16T10:15:28;96902.28;;;30.55;32.79
80405;BME280;69733;48.744;9.176;2023-07-16T10:17:54;96905.66;;;30.48;33.19
80405;BME280;69733;48.744;9.176;2023-07-16T10:20:36;96905.22;;;30.62;33.30
80405;BME280;69733;48.744;9.176;2023-07-16T10:23:15;96908.66;;;30.43;33.48
80405;BME280;69733;48.744;9.176;2023-07-16T10:25:57;96909.78;;;30.27;33.19
80405;BME280;69733;48.744;9.176;2023-07-16T10:28:22;96906.19;;;30.54;33.05
80405;BME280;69733;48.744;9.176;2023-07-16T10:30:49;96901.28;;;30.79;32.66
80405;BME280;69733;48.744;9.176;2023-07-16T10:33:15;96894.50;;;30.57;32.96
80405;BME280;69733;48.744;9.176;2023-07-16T10:35:41;96893.88;;;30.64;32.77
80405;BME280;69733;48.744;9.176;2023-07-16T10:38:07;96894.59;;;30.45;32.84
80405;BME280;69733;48.744;9.176;2023-07-16T10:40:32;96897.19;;;30.10;33.11
80405;BME280;69733;48.744;9.176;2023-07-16T10:42:58;96891.16;;;29.77;33.19
80405;BME280;69733;48.744;9.176;2023-07-16T10:45:23;96883.19;;;29.72;33.45
80405;BME280;69733;48.744;9.176;2023-07-16T10:47:55;96880.16;;;29.61;34.14
80405;BME280;69733;48.744;9.176;2023-07-16T10:50:20;96874.56;;;29.57;33.81
80405;BME280;69733;48.744;9.176;2023-07-16T10:52:51;96890.81;;;29.50;33.87
80405;BME280;69733;48.744;9.176;2023-07-16T10:55:17;96885.34;;;29.38;34.01
80405;BME280;69733;48.744;9.176;2023-07-16T10:57:42;96887.41;;;29.41;34.14
80405;BME280;69733;48.744;9.176;2023-07-16T11:00:10;96887.44;;;29.29;33.85
80405;BME280;69733;48.744;9.176;2023-07-16T11:02:39;96889.63;;;29.11;34.17
80405;BME280;69733;48.744;9.176;2023-07-16T11:05:12;96888.03;;;29.10;34.84
80405;BME280;69733;48.744;9.176;2023-07-16T11:07:43;96885.50;;;29.05;35.08
80405;BME280;69733;48.744;9.176;2023-07-16T11:10:09;96883.50;;;28.90;35.04
80405;BME280;69733;48.744;9.176;2023-07-16T11:12:34;96883.59;;;28.94;34.83
80405;BME280;69733;48.744;9.176;2023-07-16T11:14:59;96891.72;;;28.78;34.63
80405;BME280;69733;48.744;9.176;2023-07-16T11:17:24;96893.50;;;28.50;35.00
80405;BME280;69733;48.744;9.176;2023-07-16T11:19:51;96882.22;;;28.39;34.71
80405;BME280;69733;48.744;9.176;2023-07-16T11:22:17;96881.75;;;28.37;34.72
80405;BME280;69733;48.744;9.176;2023-07-16T11:24:45;96884.72;;;28.44;34.80
80405;BME280;69733;48.744;9.176;2023-07-16T11:27:18;96876.84;;;28.43;34.85
80405;BME280;69733;48.744;9.176;2023-07-16T11:29:49;96877.00;;;28.71;35.19
80405;BME280;69733;48.744;9.176;2023-07-16T11:32:33;96880.50;;;28.95;35.27
80405;BME280;69733;48.744;9.176;2023-07-16T11:35:00;96878.41;;;29.16;35.28
80405;BME280;69733;48.744;9.176;2023-07-16T11:37:28;96870.19;;;29.16;35.35
80405;BME280;69733;48.744;9.176;2023-07-16T11:39:57;96879.56;;;29.15;35.35
80405;BME280;69733;48.744;9.176;2023-07-16T11:42:24;96879.97;;;29.42;35.19
80405;BME280;69733;48.744;9.176;2023-07-16T11:44:52;96879.84;;;29.50;34.84
80405;BME280;69733;48.744;9.176;2023-07-16T11:47:19;96873.41;;;29.19;34.81
80405;BME280;69733;48.744;9.176;2023-07-16T11:49:45;96872.41;;;28.99;34.96
80405;BME280;69733;48.744;9.176;2023-07-16T11:52:10;96869.53;;;28.95;35.03
80405;BME280;69733;48.744;9.176;2023-07-16T11:54:36;96870.59;;;28.79;35.63
80405;BME280;69733;48.744;9.176;2023-07-16T11:57:01;96869.13;;;28.69;35.59
80405;BME280;69733;48.744;9.176;2023-07-16T11:59:26;96872.19;;;28.67;36.00
80405;BME280;69733;48.744;9.176;2023-07-16T12:01:52;96875.94;;;28.51;36.02
80405;BME280;69733;48.744;9.176;2023-07-16T12:04:17;96867.72;;;28.39;36.23
80405;BME280;69733;48.744;9.176;2023-07-16T12:06:43;96852.63;;;28.21;36.18
80405;BME280;69733;48.744;9.176;2023-07-16T12:09:08;96857.88;;;28.13;36.23
80405;BME280;69733;48.744;9.176;2023-07-16T12:11:34;96843.34;;;28.01;36.41
80405;BME280;69733;48.744;9.176;2023-07-16T12:13:59;96842.81;;;27.75;36.65
80405;BME280;69733;48.744;9.176;2023-07-16T12:16:24;96836.06;;;27.60;36.84
80405;BME280;69733;48.744;9.176;2023-07-16T12:18:50;96829.56;;;27.52;36.84
80405;BME280;69733;48.744;9.176;2023-07-16T12:21:15;96834.91;;;27.49;37.21
80405;BME280;69733;48.744;9.176;2023-07-16T12:23:40;96839.88;;;27.47;36.89
80405;BME280;69733;48.744;9.176;2023-07-16T12:26:06;96831.41;;;27.40;37.21
80405;BME280;69733;48.744;9.176;2023-07-16T12:28:31;96822.34;;;27.48;37.32
80405;BME280;69733;48.744;9.176;2023-07-16T12:30:56;96825.91;;;27.60;37.13
80405;BME280;69733;48.744;9.176;2023-07-16T12:33:21;96831.75;;;27.71;37.48
80405;BME280;69733;48.744;9.176;2023-07-16T12:35:47;96828.81;;;27.76;37.47
80405;BME280;69733;48.744;9.176;2023-07-16T12:38:12;96816.03;;;27.68;37.47
80405;BME280;69733;48.744;9.176;2023-07-16T12:40:38;96817.38;;;27.62;37.37
80405;BME280;69733;48.744;9.176;2023-07-16T12:43:06;96814.72;;;27.53;37.40
80405;BME280;69733;48.744;9.176;2023-07-16T12:45:31;96821.88;;;27.46;37.48
80405;BME280;69733;48.744;9.176;2023-07-16T12:47:56;96816.22;;;27.30;38.06
80405;BME280;69733;48.744;9.176;2023-07-16T12:50:22;96822.81;;;27.29;37.94
80405;BME280;69733;48.744;9.176;2023-07-16T12:52:47;96831.38;;;27.28;38.06
80405;BME280;69733;48.744;9.176;2023-07-16T12:55:13;96826.53;;;27.25;38.15
80405;BME280;69733;48.744;9.176;2023-07-16T12:57:39;96825.81;;;27.15;37.96